Аэропорт: Ровно. Ровно

ICAO: UKLR

METAR:
Информация по данной станции не доступна
METAR:
2021-04-21 11:10:00
TAF UKLR 211110Z 2112/2121 27007G12MPS 9999 BKN013 SCT020CB TEMPO 2112/2121 VRB10G18MPS 2100 -TSRAGR SQ BKN009 BKN013CB